LEGRLELC

Guest
Details From LEGR - Granada
To LELC - Murcia San Javier
Flight Number -
Tags generated
Created
Modified
Stats Distance 146 nm / 270 km
Max Altitude 15,400 ft / 4,694 m
Waypoints 3
Social Downloads 1
Likes 0
Share VATSIM

Download

Looking for another format? Having issues loading an existing format? Contact us
Advertisement - Login to hide

Notes

Basic altitude profile: - Ascent Rate: 2500ft/min - Ascent Speed: 250kts - Cruise Altitude: 35000ft - Cruise Speed: 330kts - Descent Rate: 2000ft/min - Descent Speed: 250kts Options: - Use NATs: yes - Use PACOTS: yes - Use low airways: yes - Use high airways: yes

Route

LEGR ROLAS LELC

ID Type Via Altitude Latitude Longitude Leg Dist Tot Dist Heading (true) Name
O LEGR APT - 0 ft / 0 m 37.18873˚ -3.77736˚ - 0 nm - Granada
ROLAS FIX - 15,400 ft / 4,694 m 37.41565˚ -2.85436˚ 46 nm 46 nm 73° / 73° -
O LELC APT - 0 ft / 0 m 37.78026˚ -0.81226˚ 99 nm 145 nm 77° / 78° Murcia San Javier

Altitude Profile

Advertisement - Login to hide

LEGR

Details ICAO LEGR (GRX)
Name Granada
Region Spain
Timezone Europe/Madrid (UTC+1.0)
Stats Elevation 1,859 ft / 567 m (AMSL)
Location 37.188731° -3.777359°
Runways 1
Magnetic Variation 0.677° W

METAR

LEGR 141530Z 30003KT 250V350 9999 FEW035 13/07 Q1022

Decode

TAF

TAF LEGR 141400Z 1415/1515 VRB02KT CAVOK TX13/1515Z TN03/1507Z PROB40 TEMPO 1500/1510 4000 BR BKN014

Decode

Departure Runways

ID Width Length Bearing (true) Bearing (mag) Surface Threshold Offset Overrun Length
09 147 ft / 45 m 9,511 ft / 2,899 m 89.46° 90.14° Asphalt 0 ft / 0 m 0 ft / 0 m
27 147 ft / 45 m 9,511 ft / 2,899 m 269.48° 270.16° Asphalt 0 ft / 0 m 0 ft / 0 m

LELC

Details ICAO LELC (MJV)
Name Murcia San Javier
Region Spain
Timezone Europe/Madrid (UTC+1.0)
Stats Elevation 11 ft / 3 m (AMSL)
Location 37.780256° -0.812257°
Runways 3
Magnetic Variation 0.120° E

METAR

LELC 141500Z 21009KT 180V250 CAVOK 17/09 Q1018 NOSIG

Decode

TAF

TAF LELC 141100Z 1412/1512 24008KT CAVOK TX18/1414Z TN07/1506Z

Decode

Destination Runways

ID Width Length Bearing (true) Bearing (mag) Surface Threshold Offset Overrun Length
05L 164 ft / 50 m 6,553 ft / 1,997 m 45.62° 45.50° Asphalt 656 ft / 200 m 0 ft / 0 m
05R 148 ft / 45 m 7,553 ft / 2,302 m 45.63° 45.51° Asphalt 0 ft / 0 m 656 ft / 200 m
14 197 ft / 60 m 2,657 ft / 810 m 136.05° 135.93° Grass 0 ft / 0 m 0 ft / 0 m
23L 148 ft / 45 m 7,553 ft / 2,302 m 225.65° 225.53° Asphalt 0 ft / 0 m 656 ft / 200 m
23R 164 ft / 50 m 6,553 ft / 1,997 m 225.63° 225.51° Asphalt 656 ft / 200 m 0 ft / 0 m
32 197 ft / 60 m 2,657 ft / 810 m 316.05° 315.93° Grass 0 ft / 0 m 0 ft / 0 m

Approach Navaids

Runway Type Ident Frequency Range Bearing (true) Bearing (mag) Slope Elevation
05R Localiser ISJ 110.50 MHz 18 nm / 33 km 45.68° 45.56° - 11 ft / 3 m (AMSL)
05R Glidescope ISJ 110.50 MHz 10 nm / 19 km 45.64° 45.52° 2.80° 11 ft / 3 m (AMSL)

Popular Alternatives